Time;durP1;ratioP1;P1;durP2;ratioP2;P2;SDS_P1;SDS_P2;PMS_P1;PMS_P2;Temp;Humidity;BMP_temperature;BMP_pressure;BME280_temperature;BME280_humidity;BME280_pressure;Samples;Min_cycle;Max_cycle;Signal;HPM_P1;HPM_P2
2023/12/15 00:05:07;;;;;;;21.93;13.10;;;2.30;1.00;;;;;;9880025;30;20277;-81
2023/12/15 00:10:29;;;;;;;21.80;12.90;;;2.30;1.00;;;;;;9892846;30;20292;-79
2023/12/15 00:15:49;;;;;;;20.90;12.87;;;2.40;1.00;;;;;;9890876;30;20518;-77
2023/12/15 00:21:11;;;;;;;21.23;12.73;;;2.40;1.00;;;;;;9892199;30;20497;-78
2023/12/15 00:26:32;;;;;;;19.33;12.50;;;2.40;1.00;;;;;;9891683;30;20426;-76
2023/12/15 00:31:53;;;;;;;19.20;12.23;;;2.40;41.30;;;;;;9879253;30;20401;-78
2023/12/15 00:37:15;;;;;;;21.70;13.43;;;2.50;1.00;;;;;;9892201;30;20218;-79
2023/12/15 00:42:36;;;;;;;21.37;13.13;;;2.50;1.00;;;;;;9892405;30;20204;-78
2023/12/15 00:47:57;;;;;;;23.00;13.93;;;2.40;1.00;;;;;;9902260;30;20238;-78
2023/12/15 00:53:20;;;;;;;22.00;13.20;;;2.50;1.00;;;;;;9892113;30;20206;-78
2023/12/15 00:58:41;;;;;;;22.40;13.10;;;2.50;1.00;;;;;;9878195;30;20238;-79
2023/12/15 01:04:03;;;;;;;22.53;12.90;;;2.50;1.00;;;;;;9876597;30;20269;-79
2023/12/15 01:09:24;;;;;;;19.27;11.93;;;2.50;1.00;;;;;;9889650;30;20266;-78
2023/12/15 01:14:46;;;;;;;21.60;12.00;;;2.50;1.00;;;;;;9877939;30;20209;-79
2023/12/15 01:20:10;;;;;;;16.80;10.63;;;2.50;1.00;;;;;;9891234;30;20202;-81
2023/12/15 01:25:31;;;;;;;15.60;8.97;;;2.40;1.00;;;;;;9890224;30;20297;-81
2023/12/15 01:30:52;;;;;;;12.67;8.80;;;2.50;1.00;;;;;;9890376;30;20203;-81
2023/12/15 01:36:16;;;;;;;14.50;9.43;;;2.40;1.00;;;;;;9889448;30;20524;-80
2023/12/15 01:41:38;;;;;;;11.90;8.20;;;2.40;1.00;;;;;;9882450;30;20289;-81
2023/12/15 01:47:01;;;;;;;12.80;7.77;;;2.40;99.90;;;;;;9923556;30;20308;-79
2023/12/15 01:52:23;;;;;;;9.47;6.40;;;2.40;1.00;;;;;;9936389;29;20248;-79
2023/12/15 01:57:44;;;;;;;11.00;6.67;;;2.30;49.70;;;;;;9934099;30;20201;-79
2023/12/15 02:03:06;;;;;;;9.33;5.47;;;2.30;99.90;;;;;;9899439;30;20204;-79
2023/12/15 02:08:27;;;;;;;8.93;5.40;;;2.20;1.00;;;;;;9897384;30;20291;-79
2023/12/15 02:13:48;;;;;;;7.00;5.53;;;2.20;1.00;;;;;;9896649;30;20211;-79
2023/12/15 02:19:10;;;;;;;7.33;5.20;;;2.10;1.00;;;;;;9897285;30;20245;-81
2023/12/15 02:24:31;;;;;;;6.40;4.97;;;2.10;1.00;;;;;;9895479;30;20399;-80
2023/12/15 02:29:52;;;;;;;7.50;4.93;;;2.10;1.00;;;;;;9896320;30;20300;-80
2023/12/15 02:35:14;;;;;;;7.17;5.27;;;2.10;1.00;;;;;;9896622;30;20244;-78
2023/12/15 02:40:36;;;;;;;7.10;5.10;;;2.10;49.30;;;;;;9895746;30;20210;-79
2023/12/15 02:45:57;;;;;;;7.13;5.43;;;2.10;1.00;;;;;;9888059;30;20225;-80
2023/12/15 02:51:29;;;;;;;7.83;5.03;;;2.20;1.00;;;;;;9932221;29;20201;-80
2023/12/15 02:56:50;;;;;;;7.67;5.50;;;2.20;1.00;;;;;;9903490;30;20202;-80
2023/12/15 03:02:12;;;;;;;8.67;5.63;;;2.20;45.20;;;;;;9895625;30;20212;-80
2023/12/15 03:07:33;;;;;;;7.27;5.90;;;2.20;1.00;;;;;;9894259;30;20257;-80
2023/12/15 03:12:54;;;;;;;9.53;6.03;;;2.10;1.00;;;;;;9923003;30;20200;-80
2023/12/15 03:18:15;;;;;;;9.83;6.40;;;2.20;99.90;;;;;;9932189;29;20205;-79
2023/12/15 03:23:36;;;;;;;9.80;7.40;;;2.20;99.90;;;;;;9922818;29;20547;-81
2023/12/15 03:28:58;;;;;;;8.63;6.30;;;2.20;1.00;;;;;;9894770;30;20233;-81
2023/12/15 03:34:20;;;;;;;11.73;7.37;;;2.20;1.00;;;;;;9895008;30;20198;-79
2023/12/15 03:39:41;;;;;;;10.53;7.70;;;2.20;1.00;;;;;;9894707;30;20216;-79
2023/12/15 03:45:03;;;;;;;12.10;8.07;;;2.20;1.00;;;;;;9894168;30;20205;-81
2023/12/15 03:50:24;;;;;;;11.47;7.10;;;2.20;99.90;;;;;;9894241;30;20229;-78
2023/12/15 03:55:45;;;;;;;9.57;6.90;;;2.20;40.80;;;;;;9892182;30;20213;-79
2023/12/15 04:01:07;;;;;;;11.17;7.23;;;2.20;73.70;;;;;;9892937;30;20227;-79
2023/12/15 04:06:28;;;;;;;9.20;6.47;;;2.20;72.60;;;;;;9893534;30;20236;-79
2023/12/15 04:11:49;;;;;;;10.70;6.53;;;2.30;1.00;;;;;;9893215;30;20208;-79
2023/12/15 04:17:10;;;;;;;9.80;7.03;;;2.30;1.00;;;;;;9893104;30;20202;-80
2023/12/15 04:22:31;;;;;;;10.30;7.30;;;2.20;1.00;;;;;;9892192;30;20500;-78
2023/12/15 04:27:52;;;;;;;8.13;6.63;;;2.20;1.00;;;;;;9891510;30;20287;-78
2023/12/15 04:33:14;;;;;;;9.13;6.90;;;2.20;1.00;;;;;;9892643;30;20204;-78
2023/12/15 04:38:35;;;;;;;8.43;6.73;;;2.10;1.00;;;;;;9891317;30;20381;-78
2023/12/15 04:43:57;;;;;;;8.33;6.00;;;2.20;1.00;;;;;;9891128;30;20210;-77
2023/12/15 04:49:18;;;;;;;8.40;5.70;;;2.10;99.90;;;;;;9878321;30;20234;-77
2023/12/15 04:54:39;;;;;;;8.13;6.27;;;2.10;1.00;;;;;;9890508;30;20492;-77
2023/12/15 05:00:00;;;;;;;10.10;7.07;;;2.20;1.00;;;;;;9877887;30;20404;-79
2023/12/15 05:05:21;;;;;;;12.50;7.20;;;2.10;1.00;;;;;;9890386;30;20252;-79
2023/12/15 05:10:43;;;;;;;8.30;6.40;;;2.10;1.00;;;;;;9890911;30;20556;-78
2023/12/15 05:16:05;;;;;;;9.47;6.87;;;2.20;1.00;;;;;;9889936;30;20219;-78
2023/12/15 05:21:27;;;;;;;9.07;7.23;;;2.20;1.00;;;;;;9877752;30;20570;-78
2023/12/15 05:26:48;;;;;;;8.33;6.60;;;2.20;1.00;;;;;;9876899;30;20290;-78
2023/12/15 05:32:09;;;;;;;10.23;6.87;;;2.20;1.00;;;;;;9890391;30;20219;-79
2023/12/15 05:37:31;;;;;;;10.83;7.40;;;2.20;1.00;;;;;;9889872;30;20289;-77
2023/12/15 05:42:53;;;;;;;14.90;11.20;;;2.20;1.00;;;;;;9889847;30;20203;-77
2023/12/15 05:48:14;;;;;;;12.13;8.43;;;2.10;1.00;;;;;;9925815;30;20562;-77
2023/12/15 05:53:35;;;;;;;8.80;6.30;;;2.10;1.00;;;;;;9918736;30;20363;-78
2023/12/15 05:59:02;;;;;;;8.37;6.30;;;2.20;99.90;;;;;;9878137;30;20409;-77
2023/12/15 06:04:24;;;;;;;9.90;7.23;;;2.10;99.90;;;;;;9877460;30;20265;-79
2023/12/15 06:09:45;;;;;;;8.07;5.93;;;2.20;1.00;;;;;;9876424;30;20246;-79
2023/12/15 06:15:08;;;;;;;6.53;5.03;;;2.20;1.00;;;;;;9890621;30;20244;-80
2023/12/15 06:20:30;;;;;;;14.10;8.30;;;2.20;99.90;;;;;;9890640;30;20198;-78
2023/12/15 06:25:50;;;;;;;10.43;7.03;;;2.20;1.00;;;;;;9890740;30;20235;-77
2023/12/15 06:31:12;;;;;;;10.37;7.37;;;2.20;1.00;;;;;;9897627;30;20443;-77
2023/12/15 06:36:34;;;;;;;11.10;7.33;;;2.20;99.90;;;;;;9896847;30;20197;-79
2023/12/15 06:41:55;;;;;;;9.77;7.50;;;2.20;1.00;;;;;;9897778;30;20210;-78
2023/12/15 06:47:17;;;;;;;9.30;6.23;;;2.10;99.90;;;;;;9897620;30;20524;-78
2023/12/15 06:52:40;;;;;;;9.27;5.60;;;2.20;1.00;;;;;;9895451;30;20195;-78
2023/12/15 06:58:01;;;;;;;8.60;5.97;;;2.20;1.00;;;;;;9896991;30;20226;-78
2023/12/15 07:03:22;;;;;;;10.43;7.07;;;2.20;99.90;;;;;;9894870;30;20213;-79
2023/12/15 07:08:44;;;;;;;7.83;5.93;;;2.20;1.00;;;;;;9866734;30;20321;-78
2023/12/15 07:14:05;;;;;;;8.33;6.07;;;2.20;1.00;;;;;;9845477;30;20500;-78
2023/12/15 07:19:27;;;;;;;7.50;5.90;;;2.30;1.00;;;;;;9870156;30;20201;-78
2023/12/15 07:24:48;;;;;;;10.30;6.77;;;2.20;1.00;;;;;;9873453;30;20212;-79
2023/12/15 07:30:09;;;;;;;12.83;6.07;;;2.20;99.90;;;;;;9869054;30;20250;-79
2023/12/15 07:35:31;;;;;;;9.60;5.87;;;2.20;73.70;;;;;;9893656;30;20206;-78
2023/12/15 07:40:54;;;;;;;11.03;6.17;;;2.30;1.00;;;;;;9893723;30;20305;-76
2023/12/15 07:46:17;;;;;;;10.53;6.20;;;2.20;1.00;;;;;;9893391;30;20235;-79
2023/12/15 07:51:38;;;;;;;10.20;6.23;;;2.20;1.00;;;;;;9880469;30;20210;-78
2023/12/15 07:57:00;;;;;;;10.70;6.57;;;2.20;99.90;;;;;;9892208;30;20236;-78
2023/12/15 08:02:21;;;;;;;11.47;7.20;;;2.20;1.00;;;;;;9880005;30;20408;-77
2023/12/15 08:07:42;;;;;;;12.37;7.23;;;2.20;99.90;;;;;;9890636;30;20260;-85
2023/12/15 08:13:04;;;;;;;8.83;6.43;;;2.30;1.00;;;;;;9857200;30;20276;-79
2023/12/15 08:18:25;;;;;;;7.97;6.00;;;2.20;1.00;;;;;;9905134;30;20216;-78
2023/12/15 08:23:47;;;;;;;9.13;5.93;;;2.30;99.90;;;;;;9886135;30;20207;-78
2023/12/15 08:29:08;;;;;;;12.83;9.07;;;2.20;1.00;;;;;;9879174;30;20241;-79
2023/12/15 08:34:30;;;;;;;6.93;5.27;;;2.30;1.00;;;;;;9873978;30;20201;-80
2023/12/15 08:39:51;;;;;;;8.33;6.00;;;2.30;99.90;;;;;;9873391;30;20207;-80
2023/12/15 08:45:13;;;;;;;7.67;5.97;;;2.30;1.00;;;;;;9899346;30;20208;-79
2023/12/15 08:50:35;;;;;;;8.03;6.03;;;2.40;1.00;;;;;;9921394;29;20315;-79
2023/12/15 08:55:56;;;;;;;7.10;5.80;;;2.40;1.00;;;;;;9885878;30;20435;-79
2023/12/15 09:01:18;;;;;;;11.57;6.43;;;2.40;99.90;;;;;;9874254;30;20488;-79
2023/12/15 09:06:39;;;;;;;8.07;5.73;;;2.40;1.00;;;;;;9872963;30;20218;-80
2023/12/15 09:12:01;;;;;;;9.33;5.97;;;2.40;1.00;;;;;;9871110;30;20206;-80
2023/12/15 09:17:23;;;;;;;7.30;5.27;;;2.50;99.90;;;;;;9884721;30;20207;-80
2023/12/15 09:22:45;;;;;;;8.97;5.87;;;2.50;1.00;;;;;;9885172;30;20233;-80
2023/12/15 09:28:06;;;;;;;11.40;6.30;;;2.60;99.90;;;;;;9868654;30;20317;-79
2023/12/15 09:33:28;;;;;;;10.10;6.23;;;2.60;17.10;;;;;;9848823;30;20206;-78
2023/12/15 09:38:49;;;;;;;13.47;7.60;;;2.60;99.90;;;;;;9848167;30;20409;-79
2023/12/15 09:44:10;;;;;;;11.27;6.60;;;2.60;1.00;;;;;;9845840;30;20201;-81
2023/12/15 09:49:32;;;;;;;11.37;6.70;;;2.60;1.00;;;;;;9896469;30;20249;-79
2023/12/15 09:54:54;;;;;;;14.83;8.73;;;2.60;1.00;;;;;;9909225;30;20223;-79
2023/12/15 10:00:16;;;;;;;12.57;8.03;;;2.80;1.00;;;;;;9898193;30;20293;-78
2023/12/15 10:05:38;;;;;;;14.47;8.93;;;2.80;99.90;;;;;;9879352;30;20205;-80
2023/12/15 10:10:59;;;;;;;10.47;6.67;;;2.80;99.90;;;;;;9872193;29;20313;-80
2023/12/15 10:16:20;;;;;;;11.37;6.87;;;2.80;99.90;;;;;;9858083;30;20215;-80
2023/12/15 10:21:42;;;;;;;11.70;7.17;;;2.80;1.00;;;;;;9908628;30;20203;-79
2023/12/15 10:27:07;;;;;;;11.87;7.57;;;2.90;1.00;;;;;;9888023;30;20299;-80
2023/12/15 10:32:29;;;;;;;11.80;6.53;;;3.00;1.00;;;;;;9890294;30;20214;-78
2023/12/15 10:37:50;;;;;;;9.77;6.93;;;3.10;1.00;;;;;;9878229;30;20214;-79
2023/12/15 10:43:12;;;;;;;11.73;7.60;;;3.20;1.00;;;;;;9878421;30;20353;-79
2023/12/15 10:48:34;;;;;;;13.77;8.30;;;3.20;99.90;;;;;;9854041;30;20235;-80
2023/12/15 10:53:57;;;;;;;10.53;7.27;;;3.20;99.90;;;;;;9882900;30;20252;-80
2023/12/15 10:59:18;;;;;;;20.77;12.47;;;3.30;99.90;;;;;;9853516;30;20218;-79
2023/12/15 11:04:39;;;;;;;12.07;7.40;;;3.40;99.90;;;;;;9863131;30;20271;-80
2023/12/15 11:10:03;;;;;;;8.60;5.80;;;3.40;1.00;;;;;;9885946;30;20261;-80
2023/12/15 11:15:26;;;;;;;13.07;6.47;;;3.40;9.30;;;;;;9887936;30;20202;-80
2023/12/15 11:20:50;;;;;;;10.00;6.40;;;3.40;1.00;;;;;;9877287;30;20243;-79
2023/12/15 11:26:29;;;;;;;8.47;5.67;;;3.50;1.00;;;;;;9863442;30;20222;-78
2023/12/15 11:31:53;;;;;;;10.20;6.20;;;3.60;73.90;;;;;;9867407;30;20242;-85
2023/12/15 11:37:15;;;;;;;13.23;7.27;;;3.60;99.90;;;;;;9866320;30;20265;-80
2023/12/15 11:42:37;;;;;;;12.00;6.23;;;3.60;1.00;;;;;;9858097;30;20218;-80
2023/12/15 11:47:59;;;;;;;10.13;5.97;;;3.60;99.90;;;;;;9908516;30;20280;-80
2023/12/15 11:53:20;;;;;;;13.33;7.63;;;3.70;21.60;;;;;;9900688;30;20214;-80
2023/12/15 11:58:41;;;;;;;12.40;7.63;;;3.60;1.00;;;;;;9888952;30;20272;-82
2023/12/15 12:04:03;;;;;;;12.37;6.40;;;3.70;99.90;;;;;;9878429;30;20209;-83
2023/12/15 12:09:25;;;;;;;9.50;6.13;;;3.80;1.00;;;;;;9850622;30;20246;-79
2023/12/15 12:14:47;;;;;;;9.97;5.90;;;3.70;1.00;;;;;;9852002;30;20247;-82
2023/12/15 12:20:12;;;;;;;10.13;6.60;;;3.60;99.90;;;;;;9888608;30;20214;-78
2023/12/15 12:25:33;;;;;;;12.80;8.13;;;3.60;1.00;;;;;;9872990;30;20750;-78
2023/12/15 12:30:54;;;;;;;10.03;7.47;;;3.70;1.00;;;;;;9898905;30;20544;-80
2023/12/15 12:36:17;;;;;;;9.83;6.10;;;3.70;1.00;;;;;;9886769;30;20213;-79
2023/12/15 12:41:38;;;;;;;11.87;7.07;;;3.70;1.00;;;;;;9886669;30;20214;-80
2023/12/15 12:47:00;;;;;;;22.60;10.87;;;3.70;1.00;;;;;;9911624;30;20229;-79
2023/12/15 12:52:21;;;;;;;33.03;12.07;;;3.70;1.00;;;;;;9904807;30;20209;-80
2023/12/15 12:57:43;;;;;;;44.03;23.77;;;3.70;99.90;;;;;;9873969;30;20215;-82
2023/12/15 13:03:05;;;;;;;14.00;8.37;;;3.60;99.90;;;;;;9858528;30;20276;-81
2023/12/15 13:08:26;;;;;;;14.90;8.00;;;3.70;5.20;;;;;;9843034;30;20328;-80
2023/12/15 13:13:48;;;;;;;14.37;7.90;;;3.70;33.70;;;;;;9885640;30;20218;-79
2023/12/15 13:19:09;;;;;;;20.80;10.83;;;3.60;1.00;;;;;;9873713;30;20214;-81
2023/12/15 13:24:30;;;;;;;12.70;7.80;;;3.60;1.00;;;;;;9873079;30;20202;-80
2023/12/15 13:29:53;;;;;;;11.13;7.63;;;3.60;1.00;;;;;;9873444;30;20281;-83
2023/12/15 13:35:14;;;;;;;10.80;7.30;;;3.70;1.00;;;;;;9861940;30;20202;-79
2023/12/15 13:40:36;;;;;;;13.63;7.00;;;3.60;1.00;;;;;;9880409;30;20221;-80
2023/12/15 13:45:57;;;;;;;13.03;7.00;;;3.60;25.40;;;;;;9885416;30;20491;-81
2023/12/15 13:51:22;;;;;;;15.50;9.40;;;3.60;99.90;;;;;;9915463;30;20248;-80
2023/12/15 13:56:43;;;;;;;12.90;8.87;;;3.60;99.90;;;;;;9867643;30;20260;-79
2023/12/15 14:02:04;;;;;;;13.23;8.03;;;3.60;99.90;;;;;;9879940;30;20201;-79
2023/12/15 14:07:26;;;;;;;17.17;8.90;;;3.60;1.00;;;;;;9866464;30;20255;-78
2023/12/15 14:12:47;;;;;;;12.70;8.10;;;3.70;1.00;;;;;;9869289;30;20268;-80
2023/12/15 14:18:08;;;;;;;11.10;7.83;;;3.60;1.00;;;;;;9857621;30;20543;-78
2023/12/15 14:23:31;;;;;;;12.50;6.93;;;3.60;1.00;;;;;;9871561;30;20291;-78
2023/12/15 14:28:53;;;;;;;9.70;6.50;;;3.70;1.00;;;;;;9878129;30;20308;-83
2023/12/15 14:34:14;;;;;;;8.27;6.20;;;3.70;1.00;;;;;;9878734;30;20222;-78
2023/12/15 14:39:37;;;;;;;14.47;6.90;;;3.70;1.00;;;;;;9891735;30;20279;-77
2023/12/15 14:44:59;;;;;;;12.33;6.50;;;3.70;1.00;;;;;;9881738;30;20467;-79
2023/12/15 14:50:20;;;;;;;8.57;5.73;;;3.80;1.00;;;;;;9877012;30;20244;-77
2023/12/15 14:55:42;;;;;;;9.87;6.23;;;3.80;1.00;;;;;;9891117;30;20217;-81
2023/12/15 15:01:04;;;;;;;10.07;6.00;;;3.70;1.00;;;;;;9877977;30;20206;-79
2023/12/15 15:06:25;;;;;;;11.90;6.80;;;3.70;1.00;;;;;;9889621;30;20515;-79
2023/12/15 15:11:48;;;;;;;10.30;6.33;;;3.70;5.30;;;;;;9876270;30;20218;-80
2023/12/15 15:17:09;;;;;;;9.43;6.53;;;3.70;16.00;;;;;;9890256;30;20210;-78
2023/12/15 15:22:31;;;;;;;9.17;6.80;;;3.80;1.00;;;;;;9888827;30;20220;-86
2023/12/15 15:27:52;;;;;;;10.37;7.80;;;3.80;1.00;;;;;;9890917;30;20238;-78
2023/12/15 15:33:14;;;;;;;9.50;6.20;;;3.80;12.00;;;;;;9889716;30;20205;-80
2023/12/15 15:38:35;;;;;;;10.30;6.70;;;3.80;1.00;;;;;;9875894;30;20225;-79
2023/12/15 15:43:56;;;;;;;8.60;6.43;;;3.80;1.00;;;;;;9878743;30;20553;-79
2023/12/15 15:49:18;;;;;;;10.00;6.03;;;3.80;1.00;;;;;;9924764;29;20245;-79
2023/12/15 15:54:43;;;;;;;10.33;5.80;;;3.80;7.40;;;;;;9883147;30;20524;-79
2023/12/15 16:00:04;;;;;;;10.67;6.50;;;3.70;42.80;;;;;;9888655;30;20246;-79
2023/12/15 16:05:33;;;;;;;19.73;10.97;;;3.70;12.90;;;;;;9889403;30;20202;-81
2023/12/15 16:10:55;;;;;;;8.53;5.73;;;3.80;8.20;;;;;;9878767;30;20327;-81
